Time;durP1;ratioP1;P1;durP2;ratioP2;P2;SDS_P1;SDS_P2;PMS_P1;PMS_P2;Temp;Humidity;BMP_temperature;BMP_pressure;BME280_temperature;BME280_humidity;BME280_pressure;Samples;Min_cycle;Max_cycle;Signal;HPM_P1;HPM_P2
2020/12/26 00:02:31;;;;;;;35.80;23.63;;;;;;;11.29;100.00;100670.91;4975026;28;20062;-74
2020/12/26 00:05:17;;;;;;;36.00;23.85;;;;;;;11.14;100.00;100674.72;4975439;28;20038;-73
2020/12/26 00:08:03;;;;;;;35.60;23.77;;;;;;;11.36;100.00;100664.63;4975981;28;20026;-74
2020/12/26 00:10:48;;;;;;;35.15;23.92;;;;;;;10.75;100.00;100675.50;4975323;28;20026;-75
2020/12/26 00:13:35;;;;;;;32.72;23.13;;;;;;;10.30;100.00;100678.94;4975464;28;20027;-74
2020/12/26 00:16:21;;;;;;;34.28;23.13;;;;;;;9.95;100.00;100686.44;4975208;28;20029;-73
2020/12/26 00:19:06;;;;;;;35.45;23.90;;;;;;;9.92;100.00;100694.34;4975355;28;20038;-74
2020/12/26 00:21:52;;;;;;;37.00;24.73;;;;;;;10.22;100.00;100683.44;4975741;28;20027;-75
2020/12/26 00:24:38;;;;;;;36.33;25.20;;;;;;;9.59;100.00;100694.84;4975375;28;20023;-74
2020/12/26 00:27:24;;;;;;;35.72;24.27;;;;;;;9.90;100.00;100696.97;4975454;28;20431;-75
2020/12/26 00:30:11;;;;;;;35.85;24.00;;;;;;;10.16;100.00;100694.00;4975160;28;20031;-75
2020/12/26 00:32:57;;;;;;;41.83;25.77;;;;;;;9.93;100.00;100706.56;4975659;28;20336;-75
2020/12/26 00:35:42;;;;;;;35.47;26.08;;;;;;;10.34;100.00;100726.88;4975172;28;20023;-74
2020/12/26 00:38:28;;;;;;;38.10;25.92;;;;;;;10.33;100.00;100727.78;4975561;28;20035;-74
2020/12/26 00:41:15;;;;;;;41.08;27.98;;;;;;;10.25;100.00;100743.63;4975020;28;20089;-74
2020/12/26 00:44:00;;;;;;;41.60;30.00;;;;;;;10.11;100.00;100748.19;4975293;28;20027;-74
2020/12/26 00:46:47;;;;;;;42.85;29.23;;;;;;;10.19;100.00;100738.47;4974408;28;20448;-74
2020/12/26 00:49:33;;;;;;;43.75;30.42;;;;;;;10.30;100.00;100762.72;4974782;28;20423;-75
2020/12/26 00:52:19;;;;;;;50.33;34.42;;;;;;;10.34;100.00;100768.78;4978688;28;20456;-74
2020/12/26 00:55:05;;;;;;;49.20;33.38;;;;;;;10.12;100.00;100752.53;4978534;28;20092;-74
2020/12/26 00:57:50;;;;;;;53.75;36.35;;;;;;;10.25;100.00;100750.59;4979283;28;20033;-75
2020/12/26 01:00:36;;;;;;;48.33;35.25;;;;;;;9.85;100.00;100755.53;4978727;28;20041;-74
2020/12/26 01:03:22;;;;;;;53.70;36.50;;;;;;;10.17;100.00;100761.19;4978073;28;20093;-75
2020/12/26 01:06:16;;;;;;;57.40;38.05;;;;;;;10.25;100.00;100756.72;4979124;28;20069;-74
2020/12/26 01:09:03;;;;;;;52.90;37.00;;;;;;;10.29;100.00;100766.22;4979074;28;20078;-74
2020/12/26 01:11:50;;;;;;;56.20;39.65;;;;;;;10.56;100.00;100770.19;4978368;28;20104;-74
2020/12/26 01:14:36;;;;;;;56.25;38.88;;;;;;;10.53;100.00;100797.25;4978904;28;20422;-73
2020/12/26 01:17:21;;;;;;;56.58;39.10;;;;;;;10.44;100.00;100793.94;4978447;28;20038;-75
2020/12/26 01:20:07;;;;;;;58.25;39.92;;;;;;;10.33;100.00;100781.00;4978314;28;20371;-75
2020/12/26 01:22:53;;;;;;;55.35;38.88;;;;;;;10.52;100.00;100786.81;4978073;28;20031;-74
2020/12/26 01:25:39;;;;;;;53.28;38.25;;;;;;;10.00;100.00;100784.06;4978464;28;20031;-73
2020/12/26 01:28:25;;;;;;;55.30;38.78;;;;;;;10.22;100.00;100785.53;4978214;28;20172;-74
2020/12/26 01:31:13;;;;;;;58.85;40.90;;;;;;;9.69;100.00;100790.63;4978273;28;20050;-75
2020/12/26 01:33:59;;;;;;;64.43;43.90;;;;;;;10.18;100.00;100792.56;4978564;28;20451;-75
2020/12/26 01:36:52;;;;;;;62.00;42.60;;;;;;;10.15;100.00;100786.50;4978325;28;20026;-75
2020/12/26 01:39:38;;;;;;;60.03;42.20;;;;;;;10.30;100.00;100783.69;4977730;28;20034;-74
2020/12/26 01:42:24;;;;;;;61.50;43.30;;;;;;;10.36;100.00;100795.81;4978557;28;20026;-74
2020/12/26 01:45:09;;;;;;;62.20;44.28;;;;;;;10.54;100.00;100801.63;4978131;28;20440;-74
2020/12/26 01:47:56;;;;;;;60.45;42.83;;;;;;;9.99;100.00;100796.31;4977675;28;20046;-74
2020/12/26 01:50:42;;;;;;;67.75;45.88;;;;;;;10.13;100.00;100802.25;4978013;28;20110;-73
2020/12/26 01:53:28;;;;;;;62.45;44.42;;;;;;;10.46;100.00;100789.53;4977960;28;20062;-74
2020/12/26 01:56:14;;;;;;;67.60;47.30;;;;;;;10.06;100.00;100792.72;4978636;28;20050;-74
2020/12/26 01:59:00;;;;;;;65.90;47.03;;;;;;;10.31;100.00;100789.75;4977704;28;20162;-74
2020/12/26 02:01:49;;;;;;;68.45;47.35;;;;;;;9.95;100.00;100809.44;4978305;28;20459;-74
2020/12/26 02:04:35;;;;;;;68.28;48.20;;;;;;;10.22;100.00;100816.09;4977503;28;20027;-74
2020/12/26 02:07:21;;;;;;;69.90;47.10;;;;;;;9.35;100.00;100818.03;4977061;28;20061;-75
2020/12/26 02:10:07;;;;;;;66.90;46.72;;;;;;;9.76;100.00;100819.28;4976745;28;20093;-75
2020/12/26 02:12:52;;;;;;;72.35;48.50;;;;;;;9.80;100.00;100809.66;4978329;28;20034;-74
2020/12/26 02:15:38;;;;;;;72.00;52.13;;;;;;;10.26;100.00;100816.03;4977960;28;20018;-75
2020/12/26 02:18:24;;;;;;;76.45;51.95;;;;;;;9.86;100.00;100806.97;4978159;28;20023;-74
2020/12/26 02:21:10;;;;;;;66.68;47.45;;;;;;;9.94;100.00;100821.66;4977591;28;20018;-74
2020/12/26 02:23:55;;;;;;;76.90;50.65;;;;;;;9.69;100.00;100819.41;4977458;28;20367;-74
2020/12/26 02:26:41;;;;;;;70.65;50.40;;;;;;;10.02;100.00;100816.34;4978271;28;20070;-74
2020/12/26 02:29:27;;;;;;;76.85;52.65;;;;;;;10.07;100.00;100825.91;4976737;28;20035;-74
2020/12/26 02:32:13;;;;;;;80.07;50.88;;;;;;;9.67;100.00;100829.00;4977994;28;20050;-74
2020/12/26 02:34:58;;;;;;;87.28;57.03;;;;;;;9.46;100.00;100837.09;4977134;28;20061;-74
2020/12/26 02:37:44;;;;;;;75.53;52.50;;;;;;;9.95;100.00;100849.59;4978116;28;20027;-74
2020/12/26 02:40:30;;;;;;;82.85;55.85;;;;;;;10.17;100.00;100850.22;4976720;28;20026;-74
2020/12/26 02:43:27;;;;;;;82.38;53.50;;;;;;;9.61;100.00;100852.63;4977778;28;20026;-74
2020/12/26 02:46:13;;;;;;;83.68;54.83;;;;;;;10.08;100.00;100873.88;4976910;28;20031;-74
2020/12/26 02:48:58;;;;;;;75.13;51.63;;;;;;;10.10;100.00;100875.56;4977504;28;20116;-75
2020/12/26 02:51:45;;;;;;;76.80;53.40;;;;;;;10.25;100.00;100869.28;4978586;28;20101;-74
2020/12/26 02:54:31;;;;;;;71.57;48.83;;;;;;;9.78;100.00;100875.06;4978137;28;20019;-74
2020/12/26 02:57:16;;;;;;;68.82;47.83;;;;;;;9.14;100.00;100884.50;4978128;28;20451;-74
2020/12/26 03:00:03;;;;;;;70.90;47.63;;;;;;;8.98;100.00;100876.78;4977741;28;20118;-74
2020/12/26 03:02:49;;;;;;;72.85;50.05;;;;;;;9.57;100.00;100884.94;4978096;28;20037;-74
2020/12/26 03:05:35;;;;;;;72.72;49.83;;;;;;;9.55;100.00;100902.38;4977007;28;20023;-75
2020/12/26 03:08:20;;;;;;;70.20;50.35;;;;;;;9.59;100.00;100897.13;4977321;28;20126;-73
2020/12/26 03:11:06;;;;;;;69.40;49.22;;;;;;;9.75;100.00;100889.94;4976972;28;20037;-75
2020/12/26 03:13:52;;;;;;;75.00;50.83;;;;;;;9.60;100.00;100892.72;4977320;28;20018;-74
2020/12/26 03:16:39;;;;;;;75.43;51.35;;;;;;;10.19;100.00;100892.94;4977160;28;20027;-74
2020/12/26 03:19:25;;;;;;;67.93;46.90;;;;;;;9.79;100.00;100876.84;4976855;28;20027;-75
2020/12/26 03:22:11;;;;;;;71.25;49.15;;;;;;;10.21;100.00;100888.56;4975985;28;20443;-74
2020/12/26 03:24:57;;;;;;;66.70;45.88;;;;;;;9.48;100.00;100891.13;4976234;28;20097;-74
2020/12/26 03:27:43;;;;;;;72.85;48.63;;;;;;;9.78;100.00;100897.78;4976088;28;20105;-74
2020/12/26 03:30:28;;;;;;;72.65;49.85;;;;;;;9.80;100.00;100893.38;4975909;28;20129;-75
2020/12/26 03:33:14;;;;;;;70.72;46.90;;;;;;;9.56;100.00;100891.03;4976264;28;20027;-73
2020/12/26 03:36:00;;;;;;;72.00;46.25;;;;;;;9.77;100.00;100893.44;4975808;28;20054;-75
2020/12/26 03:38:45;;;;;;;70.47;48.65;;;;;;;10.02;100.00;100900.94;4976141;28;20023;-74
2020/12/26 03:41:31;;;;;;;73.45;48.03;;;;;;;9.57;100.00;100901.47;4974875;28;20030;-75
2020/12/26 03:44:17;;;;;;;75.47;48.25;;;;;;;9.35;100.00;100899.97;4976556;28;20449;-74
2020/12/26 03:47:10;;;;;;;90.32;56.80;;;;;;;9.36;100.00;100899.09;4974991;28;20030;-74
2020/12/26 03:49:55;;;;;;;77.97;49.53;;;;;;;9.60;100.00;100900.56;4976349;28;20023;-74
2020/12/26 03:52:41;;;;;;;73.10;49.80;;;;;;;10.14;100.00;100902.59;4975570;28;20022;-74
2020/12/26 03:55:27;;;;;;;78.82;49.22;;;;;;;9.51;100.00;100898.06;4975697;28;20030;-74
2020/12/26 03:58:13;;;;;;;76.78;51.30;;;;;;;9.62;100.00;100904.06;4975392;28;20045;-75
2020/12/26 04:00:58;;;;;;;78.18;50.35;;;;;;;9.85;100.00;100917.75;4975473;28;20045;-76
2020/12/26 04:03:44;;;;;;;73.85;49.45;;;;;;;10.22;100.00;100919.09;4975602;28;20344;-74
2020/12/26 04:06:30;;;;;;;79.35;51.22;;;;;;;10.40;100.00;100920.59;4975505;28;20045;-74
2020/12/26 04:09:16;;;;;;;72.63;48.10;;;;;;;10.17;100.00;100915.66;4976250;28;20058;-74
2020/12/26 04:12:01;;;;;;;77.75;49.95;;;;;;;10.07;100.00;100908.78;4975118;28;20027;-74
2020/12/26 04:14:47;;;;;;;74.72;49.25;;;;;;;10.08;100.00;100913.13;4975641;28;20105;-74
2020/12/26 04:17:33;;;;;;;73.00;48.22;;;;;;;10.36;100.00;100911.88;4975204;28;20030;-73
2020/12/26 04:20:19;;;;;;;77.38;50.05;;;;;;;10.19;100.00;100908.63;4976121;28;20041;-74
2020/12/26 04:23:05;;;;;;;73.30;47.08;;;;;;;9.82;100.00;100915.16;4975311;28;20584;-74
2020/12/26 04:25:50;;;;;;;77.05;49.90;;;;;;;9.83;100.00;100919.50;4974610;28;20480;-75
2020/12/26 04:28:36;;;;;;;76.20;49.50;;;;;;;9.99;100.00;100923.69;4974914;28;20112;-74
2020/12/26 04:31:22;;;;;;;78.38;50.05;;;;;;;10.02;100.00;100913.19;4974551;28;20138;-74
2020/12/26 04:34:08;;;;;;;75.82;49.60;;;;;;;9.60;100.00;100909.31;4974374;28;20031;-73
2020/12/26 04:36:54;;;;;;;80.63;52.85;;;;;;;9.66;100.00;100900.53;4975096;28;20030;-75
2020/12/26 04:39:41;;;;;;;80.78;49.65;;;;;;;9.72;100.00;100898.72;4975128;28;20381;-74
2020/12/26 04:42:27;;;;;;;80.75;51.88;;;;;;;9.49;100.00;100892.00;4974958;28;20356;-74
2020/12/26 04:45:13;;;;;;;78.85;50.97;;;;;;;9.83;100.00;100891.59;4975061;28;20114;-75
2020/12/26 04:48:07;;;;;;;81.85;52.80;;;;;;;9.94;100.00;100902.78;4974925;28;20120;-74
2020/12/26 04:51:00;;;;;;;81.82;53.85;;;;;;;9.62;100.00;100906.69;4975606;28;20098;-74
2020/12/26 04:53:52;;;;;;;82.80;53.70;;;;;;;9.73;100.00;100915.28;4974958;28;20034;-74
2020/12/26 04:56:43;;;;;;;82.28;51.28;;;;;;;9.12;100.00;100920.22;4975231;28;20019;-74
2020/12/26 04:59:29;;;;;;;85.97;55.38;;;;;;;9.07;100.00;100916.78;4974188;28;20066;-74
2020/12/26 05:02:15;;;;;;;87.45;55.55;;;;;;;9.34;100.00;100915.66;4974862;28;20452;-73
2020/12/26 05:05:03;;;;;;;88.63;56.42;;;;;;;9.41;100.00;100910.34;4974356;28;20046;-74
2020/12/26 05:07:49;;;;;;;90.90;57.22;;;;;;;9.65;100.00;100920.56;4974911;28;20030;-74
2020/12/26 05:10:39;;;;;;;90.72;57.72;;;;;;;9.52;100.00;100921.59;4974941;28;20030;-74
2020/12/26 05:13:26;;;;;;;90.68;58.25;;;;;;;9.86;100.00;100909.03;4974288;28;20022;-74
2020/12/26 05:16:11;;;;;;;92.95;59.30;;;;;;;9.94;100.00;100912.41;4974676;28;20031;-74
2020/12/26 05:18:57;;;;;;;91.05;57.83;;;;;;;10.07;100.00;100919.25;4975324;28;20462;-75
2020/12/26 05:21:48;;;;;;;89.82;57.17;;;;;;;9.93;100.00;100915.91;4974079;28;20058;-74
2020/12/26 05:24:34;;;;;;;95.68;57.80;;;;;;;9.75;100.00;100934.44;4974816;28;20359;-75
2020/12/26 05:27:24;;;;;;;98.22;61.20;;;;;;;9.89;100.00;100930.78;4974182;28;20023;-74
2020/12/26 05:30:10;;;;;;;104.63;60.60;;;;;;;10.02;100.00;100939.38;4974473;28;20455;-75
2020/12/26 05:32:59;;;;;;;109.32;62.22;;;;;;;9.52;100.00;100954.72;4974955;28;20060;-74
2020/12/26 05:35:50;;;;;;;114.38;64.03;;;;;;;9.48;100.00;100971.31;4974119;28;20022;-74
2020/12/26 05:38:36;;;;;;;133.57;68.75;;;;;;;9.41;100.00;100972.28;4978560;28;20388;-74
2020/12/26 05:41:23;;;;;;;117.55;62.53;;;;;;;9.53;100.00;100993.94;4977936;28;20050;-74
2020/12/26 05:44:11;;;;;;;112.13;58.72;;;;;;;9.14;100.00;100998.63;4978619;28;20105;-75
2020/12/26 05:47:02;;;;;;;117.35;59.15;;;;;;;8.81;100.00;101009.31;4977878;28;20093;-73
2020/12/26 05:49:47;;;;;;;113.50;57.42;;;;;;;8.67;100.00;101011.97;4978052;28;20420;-73
2020/12/26 05:52:34;;;;;;;103.28;49.25;;;;;;;8.40;100.00;101026.91;4977546;28;20101;-74
2020/12/26 05:55:21;;;;;;;67.25;34.85;;;;;;;8.01;100.00;101020.03;4977205;28;20161;-74
2020/12/26 05:58:07;;;;;;;49.88;27.20;;;;;;;8.20;100.00;101037.38;4977720;28;20495;-74
2020/12/26 06:00:59;;;;;;;31.75;16.83;;;;;;;8.02;100.00;101039.16;4976897;28;20031;-74
2020/12/26 06:03:44;;;;;;;27.13;13.18;;;;;;;8.21;100.00;101040.91;4977716;28;20074;-74
2020/12/26 06:06:30;;;;;;;21.88;11.43;;;;;;;8.12;100.00;101040.91;4978047;28;20110;-74
2020/12/26 06:09:19;;;;;;;23.05;10.75;;;;;;;8.41;100.00;101055.59;4977576;28;20027;-75
2020/12/26 06:12:08;;;;;;;18.40;10.48;;;;;;;8.29;100.00;101055.66;4977215;28;20041;-74
2020/12/26 06:14:55;;;;;;;13.80;8.68;;;;;;;7.93;100.00;101047.88;4977607;28;20046;-74
2020/12/26 06:17:43;;;;;;;13.43;8.43;;;;;;;7.89;100.00;101037.44;4976584;28;20042;-74
2020/12/26 06:20:29;;;;;;;15.52;7.57;;;;;;;7.59;100.00;101040.94;4977490;28;20048;-73
2020/12/26 06:23:23;;;;;;;13.15;7.45;;;;;;;8.13;100.00;101047.84;4978449;28;20034;-75
2020/12/26 06:26:08;;;;;;;11.82;7.40;;;;;;;7.95;100.00;101042.66;4977912;28;20030;-74
2020/12/26 06:28:57;;;;;;;9.20;6.90;;;;;;;7.95;100.00;101053.06;4976377;28;20062;-73
2020/12/26 06:31:45;;;;;;;10.43;7.40;;;;;;;8.43;100.00;101061.69;4977562;28;20054;-74
2020/12/26 06:34:31;;;;;;;11.63;7.15;;;;;;;8.33;100.00;101059.97;4977487;28;20478;-74
2020/12/26 06:37:17;;;;;;;10.65;7.15;;;;;;;8.06;100.00;101052.22;4976321;28;20061;-74
2020/12/26 06:40:23;;;;;;;12.80;8.15;;;;;;;7.57;100.00;101065.28;4978249;28;20432;-73
2020/12/26 06:43:08;;;;;;;13.15;9.02;;;;;;;7.41;100.00;101058.31;4975796;28;20111;-74
2020/12/26 06:45:54;;;;;;;11.77;8.32;;;;;;;8.06;100.00;101059.16;4977251;28;20030;-74
2020/12/26 06:48:44;;;;;;;13.07;8.82;;;;;;;7.76;100.00;101067.03;4976362;28;20037;-75
2020/12/26 06:51:40;;;;;;;15.40;9.82;;;;;;;7.81;100.00;101083.53;4977279;28;20106;-75
2020/12/26 06:54:41;;;;;;;15.85;9.18;;;;;;;7.49;100.00;101095.69;4976116;28;20365;-74
2020/12/26 06:57:45;;;;;;;16.02;10.57;;;;;;;7.94;100.00;101087.88;4976409;28;20162;-73
2020/12/26 07:00:31;;;;;;;17.90;9.88;;;;;;;7.60;100.00;101079.19;4976112;28;20037;-74
2020/12/26 07:03:19;;;;;;;14.98;9.70;;;;;;;7.60;100.00;101088.75;4975240;28;20039;-74
2020/12/26 07:06:05;;;;;;;18.73;10.05;;;;;;;7.44;100.00;101094.84;4976852;28;20034;-74
2020/12/26 07:08:51;;;;;;;15.63;9.13;;;;;;;7.16;100.00;101106.06;4977031;28;20023;-74
2020/12/26 07:11:50;;;;;;;17.52;9.52;;;;;;;7.30;100.00;101109.56;4976936;28;20061;-74
2020/12/26 07:14:49;;;;;;;14.68;9.40;;;;;;;7.18;100.00;101117.34;4977297;28;20422;-73
2020/12/26 07:17:35;;;;;;;18.85;9.63;;;;;;;7.03;100.00;101125.16;4975813;28;20046;-74
2020/12/26 07:20:27;;;;;;;15.82;9.88;;;;;;;6.95;100.00;101124.25;4977057;28;20062;-76
2020/12/26 07:23:13;;;;;;;19.77;9.98;;;;;;;7.05;100.00;101111.25;4976614;28;20066;-74
2020/12/26 07:25:59;;;;;;;16.85;9.88;;;;;;;7.33;100.00;101118.28;4977196;28;20101;-75
2020/12/26 07:28:44;;;;;;;18.98;9.98;;;;;;;7.50;100.00;101110.47;4976407;28;20030;-74
2020/12/26 07:31:46;;;;;;;16.17;9.25;;;;;;;7.07;100.00;101106.06;4976860;28;20094;-74
2020/12/26 07:34:35;;;;;;;16.15;9.13;;;;;;;7.05;100.00;101111.25;4975823;28;20066;-75
2020/12/26 07:37:21;;;;;;;18.15;9.50;;;;;;;6.75;100.00;101113.75;4976955;28;20031;-75
2020/12/26 07:40:07;;;;;;;16.00;9.70;;;;;;;6.74;100.00;101122.41;4976818;28;20027;-75
2020/12/26 07:42:54;;;;;;;17.02;9.80;;;;;;;7.09;100.00;101132.97;4975758;28;20113;-74
2020/12/26 07:45:42;;;;;;;22.77;11.73;;;;;;;7.18;100.00;101123.44;4975781;28;20039;-75
2020/12/26 07:48:27;;;;;;;19.35;11.05;;;;;;;7.34;100.00;101135.66;4975733;28;20030;-74
2020/12/26 07:51:13;;;;;;;18.67;11.85;;;;;;;7.70;100.00;101151.34;4975142;28;20045;-76
2020/12/26 07:53:59;;;;;;;19.15;9.85;;;;;;;7.10;100.00;101138.19;4975392;28;20117;-74
2020/12/26 07:56:45;;;;;;;20.45;9.85;;;;;;;6.89;100.00;101142.44;4976513;28;20069;-74
2020/12/26 07:59:31;;;;;;;20.52;10.60;;;;;;;6.57;100.00;101149.22;4975833;28;20023;-74
2020/12/26 08:02:17;;;;;;;19.85;9.73;;;;;;;6.50;100.00;101166.53;4975781;28;20054;-73
2020/12/26 08:05:02;;;;;;;22.40;10.55;;;;;;;6.51;100.00;101181.28;4975893;28;20114;-74
2020/12/26 08:07:49;;;;;;;22.60;10.18;;;;;;;6.54;100.00;101173.50;4975864;28;20041;-77
2020/12/26 08:10:34;;;;;;;22.88;10.57;;;;;;;6.75;100.00;101172.78;4975266;28;20023;-76
2020/12/26 08:13:20;;;;;;;24.48;9.82;;;;;;;6.64;100.00;101167.50;4974936;28;20027;-74
2020/12/26 08:16:06;;;;;;;18.55;9.30;;;;;;;6.29;100.00;101165.53;4976521;28;20054;-73
2020/12/26 08:18:52;;;;;;;19.95;10.80;;;;;;;6.59;100.00;101158.78;4975973;28;20023;-75
2020/12/26 08:21:39;;;;;;;22.63;10.40;;;;;;;6.71;100.00;101150.19;4974565;28;20459;-74
2020/12/26 08:24:25;;;;;;;23.02;10.13;;;;;;;6.81;100.00;101158.06;4975289;28;20055;-74
2020/12/26 08:27:12;;;;;;;20.70;10.38;;;;;;;6.55;100.00;101163.97;4974954;28;20133;-74
2020/12/26 08:30:01;;;;;;;21.98;10.40;;;;;;;6.41;100.00;101170.81;4974900;28;20031;-74
2020/12/26 08:33:19;;;;;;;25.73;11.35;;;;;;;6.98;100.00;101166.78;4975069;28;20030;-75
2020/12/26 08:36:27;;;;;;;21.55;10.38;;;;;;;6.49;100.00;101166.53;4972860;28;20527;-74
2020/12/26 08:39:17;;;;;;;25.67;10.57;;;;;;;6.46;100.00;101158.69;4975512;28;20048;-74
2020/12/26 08:42:06;;;;;;;20.58;10.23;;;;;;;6.90;100.00;101170.22;4974950;28;20031;-74
2020/12/26 08:44:52;;;;;;;25.73;11.25;;;;;;;6.74;100.00;101160.59;4975039;28;20053;-75
2020/12/26 08:47:38;;;;;;;20.38;10.60;;;;;;;7.30;100.00;101164.28;4974974;28;20344;-74
2020/12/26 08:50:24;;;;;;;21.88;10.70;;;;;;;7.05;100.00;101152.06;4976038;28;20019;-74
2020/12/26 08:53:10;;;;;;;21.88;10.07;;;;;;;6.71;100.00;101148.44;4975077;28;20109;-75
2020/12/26 08:55:56;;;;;;;21.30;11.40;;;;;;;6.70;100.00;101145.81;4975659;28;20368;-73
2020/12/26 08:58:49;;;;;;;26.83;12.93;;;;;;;6.70;100.00;101138.91;4974747;28;20026;-74
2020/12/26 09:01:35;;;;;;;24.42;11.05;;;;;;;6.85;100.00;101148.50;4974836;28;20039;-74
2020/12/26 09:04:21;;;;;;;19.38;9.88;;;;;;;6.72;100.00;101136.31;4975202;28;20030;-76
2020/12/26 09:07:22;;;;;;;20.40;10.77;;;;;;;6.71;100.00;101138.03;4974981;28;20039;-76
2020/12/26 09:10:11;;;;;;;16.48;9.63;;;;;;;6.59;100.00;101144.91;4974088;28;20027;-77
2020/12/26 09:13:08;;;;;;;19.25;10.10;;;;;;;6.46;100.00;101137.88;4979084;28;20035;-76
2020/12/26 09:16:02;;;;;;;17.30;9.13;;;;;;;6.62;100.00;101144.91;4977726;28;20038;-76
2020/12/26 09:18:49;;;;;;;15.45;9.45;;;;;;;6.80;100.00;101134.59;4979555;28;20031;-76
2020/12/26 09:21:35;;;;;;;19.27;9.82;;;;;;;6.87;100.00;101128.56;4978162;28;20459;-76
2020/12/26 09:24:21;;;;;;;17.42;8.98;;;;;;;6.83;100.00;101140.69;4978103;28;20419;-77
2020/12/26 09:27:20;;;;;;;18.88;9.05;;;;;;;6.73;100.00;101130.22;4978617;28;20030;-76
2020/12/26 09:30:06;;;;;;;18.17;9.85;;;;;;;6.85;100.00;101130.28;4978457;28;20041;-77
2020/12/26 09:32:56;;;;;;;17.33;9.75;;;;;;;6.69;100.00;101137.16;4978675;28;20026;-76
2020/12/26 09:35:41;;;;;;;16.83;9.77;;;;;;;6.63;100.00;101126.69;4978539;28;20363;-77
2020/12/26 09:38:27;;;;;;;23.33;10.43;;;;;;;6.99;100.00;101139.03;4978125;28;20027;-76
2020/12/26 09:41:25;;;;;;;18.88;9.18;;;;;;;6.77;100.00;101135.47;4977862;28;20035;-75
2020/12/26 09:44:11;;;;;;;19.50;9.27;;;;;;;6.93;100.00;101125.97;4978068;28;20054;-76
2020/12/26 09:47:02;;;;;;;18.42;8.68;;;;;;;7.21;100.00;101113.03;4978258;28;20093;-77
2020/12/26 09:49:48;;;;;;;15.90;8.57;;;;;;;7.03;100.00;101099.94;4977963;28;20026;-76
2020/12/26 09:52:34;;;;;;;19.50;8.32;;;;;;;6.52;100.00;101096.28;4976554;28;20027;-75
2020/12/26 09:55:19;;;;;;;19.05;9.73;;;;;;;6.84;100.00;101092.09;4976729;28;20022;-76
2020/12/26 09:58:05;;;;;;;17.55;9.73;;;;;;;6.72;100.00;101079.03;4977530;28;20463;-77
2020/12/26 10:00:51;;;;;;;22.17;9.85;;;;;;;6.85;100.00;101076.47;4978287;28;20382;-77
2020/12/26 10:03:37;;;;;;;27.42;13.82;;;;;;;6.48;100.00;101078.91;4977376;28;20030;-76
2020/12/26 10:06:22;;;;;;;27.27;15.32;;;;;;;6.59;100.00;101075.47;4976564;28;20407;-76
2020/12/26 10:09:08;;;;;;;26.20;14.00;;;;;;;6.25;100.00;101080.53;4977490;28;20030;-77
2020/12/26 10:11:54;;;;;;;25.30;14.30;;;;;;;6.17;100.00;101077.00;4977299;28;20031;-79
2020/12/26 10:14:39;;;;;;;28.92;16.35;;;;;;;6.50;100.00;101088.47;4977808;28;20027;-76
2020/12/26 10:17:25;;;;;;;30.58;17.98;;;;;;;6.62;100.00;101090.25;4977327;28;20459;-76
2020/12/26 10:20:11;;;;;;;28.58;17.77;;;;;;;6.67;100.00;101096.38;4977694;28;20039;-76
2020/12/26 10:22:57;;;;;;;29.08;17.15;;;;;;;6.58;100.00;101102.38;4977693;28;20042;-77
2020/12/26 10:25:42;;;;;;;22.77;14.30;;;;;;;6.21;100.00;101079.66;4977156;28;20031;-76
2020/12/26 10:28:28;;;;;;;24.38;13.40;;;;;;;6.81;100.00;101079.03;4976923;28;20069;-76
2020/12/26 10:31:14;;;;;;;20.02;11.13;;;;;;;6.66;100.00;101078.97;4976581;28;20113;-78
2020/12/26 10:34:00;;;;;;;21.02;11.20;;;;;;;7.18;100.00;101083.47;4976927;28;20050;-78
2020/12/26 10:36:46;;;;;;;20.33;11.52;;;;;;;6.72;100.00;101085.09;4976803;28;20375;-78
2020/12/26 10:39:32;;;;;;;26.25;13.45;;;;;;;6.73;100.00;101081.63;4976201;28;20035;-76
2020/12/26 10:42:17;;;;;;;21.40;10.93;;;;;;;6.51;100.00;101076.34;4976708;28;20117;-78
2020/12/26 10:45:03;;;;;;;25.25;12.13;;;;;;;6.38;100.00;101092.75;4977116;28;20023;-76
2020/12/26 10:47:49;;;;;;;30.58;19.35;;;;;;;6.49;100.00;101111.88;4976380;28;20026;-76
2020/12/26 10:50:35;;;;;;;25.23;11.70;;;;;;;6.70;100.00;101123.28;4977161;28;20031;-76
2020/12/26 10:53:21;;;;;;;23.27;12.27;;;;;;;6.40;100.00;101128.34;4976704;28;20022;-77
2020/12/26 10:56:07;;;;;;;23.85;12.63;;;;;;;6.63;100.00;101123.25;4977042;28;20093;-76
2020/12/26 10:58:52;;;;;;;22.15;12.50;;;;;;;6.22;100.00;101128.19;4976495;28;20460;-76
2020/12/26 11:01:38;;;;;;;25.83;13.32;;;;;;;6.29;100.00;101129.09;4977096;28;20030;-76
2020/12/26 11:04:24;;;;;;;27.70;15.52;;;;;;;6.57;100.00;101128.41;4976366;28;20034;-76
2020/12/26 11:07:10;;;;;;;25.52;15.20;;;;;;;6.21;100.00;101128.19;4976549;28;20027;-75
2020/12/26 11:09:55;;;;;;;29.17;14.23;;;;;;;6.14;100.00;101116.88;4976262;28;20035;-76
2020/12/26 11:12:41;;;;;;;22.92;13.35;;;;;;;6.39;100.00;101123.13;4976404;28;20456;-76
2020/12/26 11:15:27;;;;;;;24.95;13.77;;;;;;;6.48;100.00;101136.16;4976487;28;20034;-76
2020/12/26 11:18:12;;;;;;;24.80;13.07;;;;;;;6.22;100.00;101132.56;4976180;28;20054;-76
2020/12/26 11:20:58;;;;;;;26.63;13.82;;;;;;;6.03;100.00;101135.88;4976158;28;20030;-76
2020/12/26 11:23:44;;;;;;;23.13;13.02;;;;;;;5.80;100.00;101137.38;4976054;28;20038;-76
2020/12/26 11:26:30;;;;;;;29.55;16.20;;;;;;;5.99;100.00;101142.75;4976357;28;20027;-77
2020/12/26 11:29:16;;;;;;;34.03;18.08;;;;;;;6.02;100.00;101150.59;4976561;28;20023;-77
2020/12/26 11:32:02;;;;;;;28.90;16.90;;;;;;;6.17;100.00;101149.84;4975933;28;20411;-77
2020/12/26 11:34:48;;;;;;;32.65;17.17;;;;;;;5.94;100.00;101159.22;4975399;28;20027;-77
2020/12/26 11:37:34;;;;;;;28.20;16.73;;;;;;;6.23;100.00;101162.91;4975956;28;20018;-77
2020/12/26 11:40:19;;;;;;;32.80;18.55;;;;;;;6.41;100.00;101160.41;4976321;28;20023;-76
2020/12/26 11:43:05;;;;;;;29.08;17.73;;;;;;;6.13;100.00;101148.97;4975972;28;20023;-77
2020/12/26 11:45:51;;;;;;;32.13;18.45;;;;;;;6.14;100.00;101124.69;4975849;28;20027;-77
2020/12/26 11:48:37;;;;;;;32.85;18.33;;;;;;;6.16;100.00;101122.09;4975691;28;20057;-77
2020/12/26 11:51:23;;;;;;;32.97;18.15;;;;;;;5.80;100.00;101122.66;4975764;28;20049;-77
2020/12/26 11:54:09;;;;;;;30.33;16.80;;;;;;;5.43;100.00;101131.00;4975432;28;20060;-77
2020/12/26 11:56:54;;;;;;;32.25;18.38;;;;;;;5.71;100.00;101134.72;4975640;28;20035;-77
2020/12/26 11:59:40;;;;;;;30.77;18.45;;;;;;;5.78;100.00;101142.56;4976850;28;20038;-77
2020/12/26 12:02:26;;;;;;;32.15;19.10;;;;;;;5.47;100.00;101141.41;4977002;28;20038;-78
2020/12/26 12:05:12;;;;;;;35.65;18.98;;;;;;;5.58;100.00;101132.88;4974708;28;20027;-78
2020/12/26 12:07:57;;;;;;;34.67;19.88;;;;;;;5.84;100.00;101123.59;4975671;28;20181;-79
2020/12/26 12:10:43;;;;;;;34.42;18.73;;;;;;;5.47;100.00;101131.88;4974586;28;20023;-78
2020/12/26 12:13:29;;;;;;;37.33;19.15;;;;;;;5.73;100.00;101135.56;4974707;28;20117;-78
2020/12/26 12:16:14;;;;;;;33.55;18.48;;;;;;;5.66;100.00;101139.00;4975298;28;20023;-78
2020/12/26 12:19:01;;;;;;;31.75;18.33;;;;;;;5.57;100.00;101138.91;4974776;28;20030;-79
2020/12/26 12:21:47;;;;;;;32.72;20.02;;;;;;;5.73;100.00;101138.19;4974973;28;20066;-77
2020/12/26 12:24:32;;;;;;;34.42;20.13;;;;;;;5.64;100.00;101128.59;4975911;28;20026;-78
2020/12/26 12:27:18;;;;;;;32.00;19.88;;;;;;;5.62;100.00;101126.84;4976138;28;20035;-77
2020/12/26 12:30:04;;;;;;;32.55;20.60;;;;;;;5.70;100.00;101119.97;4974914;28;20030;-77
2020/12/26 12:32:50;;;;;;;35.75;19.92;;;;;;;5.77;100.00;101106.16;4975288;28;20027;-77
2020/12/26 12:35:35;;;;;;;32.17;19.73;;;;;;;5.84;100.00;101102.78;4974836;28;20046;-78
2020/12/26 12:38:21;;;;;;;32.45;19.30;;;;;;;5.60;100.00;101118.16;4974810;28;20023;-77
2020/12/26 12:41:07;;;;;;;33.67;20.33;;;;;;;5.47;100.00;101113.69;4974989;28;20054;-77